createdAt,value
2017-04-08T13:48:12.586Z,10388
2017-04-08T13:49:13.579Z,11212
2017-04-08T13:50:14.300Z,11580
2017-04-08T13:51:15.859Z,11204
2017-04-08T13:52:16.565Z,10680
2017-04-08T13:53:17.285Z,9988
2017-04-08T13:54:17.995Z,10052
2017-04-08T13:55:18.722Z,10028
2017-04-08T13:56:19.422Z,9368
2017-04-08T13:57:20.104Z,8372
2017-04-08T13:58:20.795Z,8064
2017-04-08T13:59:21.605Z,7832
2017-04-08T14:00:22.307Z,8008
2017-04-08T14:01:23.016Z,8620
2017-04-08T14:02:25.483Z,9116
2017-04-08T14:03:27.323Z,9704
2017-04-08T14:04:28.032Z,10280
2017-04-08T14:05:28.717Z,10372
2017-04-08T14:06:29.436Z,10472
2017-04-08T14:07:30.142Z,10028
2017-04-08T14:08:30.831Z,9536
2017-04-08T14:09:31.531Z,9360
2017-04-08T14:10:32.237Z,9160
2017-04-08T14:11:32.940Z,9168
2017-04-08T14:12:33.615Z,8952
2017-04-08T14:13:34.314Z,8592
2017-04-08T14:14:35.031Z,8200
2017-04-08T14:15:35.745Z,8412
2017-04-08T14:16:36.501Z,8336
2017-04-08T14:17:37.425Z,8640
2017-04-08T14:18:38.115Z,9136
2017-04-08T14:19:38.825Z,8920
2017-04-08T14:20:39.516Z,8028
2017-04-08T14:21:40.274Z,7604
2017-04-08T14:22:41.260Z,7472
2017-04-08T14:23:41.948Z,7636
2017-04-08T14:24:42.850Z,8008
2017-04-08T14:25:43.686Z,8348
2017-04-08T14:26:44.444Z,8536
2017-04-08T14:27:45.185Z,8596
2017-04-08T14:28:45.902Z,8808
2017-04-08T14:29:46.752Z,8860
2017-04-08T14:30:47.558Z,8948
2017-04-08T14:31:48.320Z,8928
2017-04-08T14:32:49.053Z,8836
2017-04-08T14:33:49.778Z,9084
2017-04-08T14:34:50.462Z,9300
2017-04-08T14:35:51.146Z,9848
2017-04-08T14:36:51.879Z,10152
2017-04-08T14:37:52.547Z,9976
2017-04-08T14:38:53.246Z,9960
2017-04-08T14:39:53.988Z,10028
2017-04-08T14:40:54.685Z,9700
2017-04-08T14:41:55.412Z,9312
2017-04-08T14:42:56.086Z,9260
2017-04-08T14:43:56.812Z,9056
2017-04-08T14:44:57.500Z,9028
2017-04-08T14:45:58.207Z,9092
2017-04-08T14:46:58.875Z,9228
2017-04-08T14:47:59.607Z,9332
2017-04-08T14:49:00.316Z,9532
2017-04-08T14:50:01.021Z,9656
2017-04-08T14:51:01.690Z,9972
2017-04-08T14:52:02.393Z,10012
2017-04-08T14:53:03.111Z,10068
2017-04-08T14:54:03.806Z,10136
2017-04-08T14:55:04.527Z,10104
2017-04-08T14:56:05.234Z,9848
2017-04-08T14:57:05.978Z,10248
2017-04-08T14:58:06.688Z,10336
2017-04-08T14:59:07.383Z,10244
2017-04-08T15:00:08.089Z,9372
2017-04-08T15:01:08.776Z,8508
2017-04-08T15:02:09.489Z,7824
2017-04-08T15:03:10.210Z,7416
2017-04-08T15:04:10.948Z,6880
2017-04-08T15:05:11.672Z,6096
2017-04-08T15:06:12.377Z,5308
2017-04-08T15:07:13.084Z,5236
2017-04-08T15:08:13.857Z,5440
2017-04-08T15:09:14.558Z,6252
2017-04-08T15:10:15.275Z,6448
2017-04-08T15:11:16.014Z,6112
2017-04-08T15:12:16.752Z,5708
2017-04-08T15:13:17.455Z,5152
2017-04-08T15:14:18.195Z,4768
2017-04-08T15:15:18.908Z,4576
2017-04-08T15:16:19.633Z,4724
2017-04-08T15:17:20.335Z,4972
2017-04-08T15:18:21.058Z,5228
2017-04-08T15:19:21.788Z,5768
2017-04-08T15:20:22.520Z,6336
2017-04-08T15:21:23.228Z,6240
2017-04-08T15:22:23.939Z,5972
2017-04-08T15:23:24.664Z,5720
2017-04-08T15:24:25.385Z,5356
2017-04-08T15:25:26.073Z,5128
2017-04-08T15:26:26.778Z,5028
2017-04-08T15:27:27.522Z,4872
2017-04-08T15:28:28.155Z,4756
2017-04-08T15:29:28.852Z,4716
2017-04-08T15:30:29.603Z,4632
2017-04-08T15:31:30.322Z,4492
2017-04-08T15:32:31.016Z,4444
2017-04-08T15:33:31.748Z,4560
2017-04-08T15:34:32.423Z,4936
2017-04-08T15:35:33.755Z,5176
2017-04-08T15:36:34.458Z,5376
2017-04-08T15:37:35.147Z,5528
2017-04-08T15:38:35.872Z,5696
2017-04-08T15:39:36.594Z,5792
2017-04-08T15:40:37.318Z,5752
2017-04-08T15:41:38.034Z,5596
2017-04-08T15:42:38.738Z,5296
2017-04-08T15:43:39.526Z,5244
2017-04-08T15:44:40.253Z,5220
2017-04-08T15:45:40.945Z,5112
2017-04-08T15:46:41.709Z,5156
2017-04-08T15:47:42.388Z,4924
2017-04-08T15:48:43.083Z,4684
2017-04-08T15:49:43.790Z,4532
2017-04-08T15:50:44.502Z,4496
2017-04-08T15:51:45.942Z,4216
2017-04-08T15:52:47.176Z,4016
2017-04-08T15:53:47.907Z,3876
2017-04-08T15:54:48.633Z,3740
2017-04-08T15:55:49.570Z,3656
2017-04-08T15:56:50.337Z,3608
2017-04-08T15:57:51.048Z,3532
2017-04-08T15:58:51.777Z,3320
2017-04-08T15:59:52.509Z,3240
2017-04-08T16:00:53.254Z,3204
2017-04-08T16:01:54.233Z,3172
2017-04-08T16:02:54.928Z,3188
2017-04-08T16:03:55.601Z,3132
2017-04-08T16:04:56.275Z,3068
2017-04-08T16:05:56.959Z,3008
2017-04-08T16:06:57.658Z,2940
2017-04-08T16:07:58.332Z,3020
2017-04-08T16:08:59.062Z,3060
2017-04-08T16:09:59.741Z,3100
2017-04-08T16:11:00.416Z,3108
2017-04-08T16:12:01.184Z,3176
2017-04-08T16:13:01.860Z,3320
2017-04-08T16:14:02.553Z,3548
2017-04-08T16:15:03.246Z,3576
2017-04-08T16:16:03.922Z,3552
2017-04-08T16:17:04.792Z,3464
2017-04-08T16:18:05.594Z,3320
2017-04-08T16:19:06.307Z,3200
2017-04-08T16:20:06.995Z,3096
2017-04-08T16:21:07.692Z,2948
2017-04-08T16:22:08.462Z,2904
2017-04-08T16:23:09.173Z,2860
2017-04-08T16:24:09.815Z,2880
2017-04-08T16:25:10.799Z,2872
2017-04-08T16:26:30.616Z,2932
2017-04-08T16:27:55.808Z,3108
2017-04-08T16:28:56.571Z,3316
2017-04-08T16:29:57.279Z,3496
2017-04-08T16:30:57.975Z,3692
2017-04-08T16:31:58.737Z,3880
2017-04-08T16:32:59.433Z,3968
2017-04-08T16:34:27.063Z,4036
2017-04-08T16:35:27.772Z,4088
2017-04-08T16:36:28.485Z,4064
2017-04-08T16:37:29.277Z,4008
2017-04-08T16:38:29.969Z,3924
2017-04-08T16:39:42.914Z,3968
2017-04-08T16:40:46.917Z,3808
2017-04-08T16:41:49.508Z,3800
2017-04-08T16:42:50.893Z,3716
2017-04-08T16:43:53.620Z,3616
2017-04-08T16:44:55.826Z,3540
2017-04-08T16:45:56.520Z,3496
2017-04-08T16:46:57.200Z,3416
2017-04-08T16:47:57.905Z,3368
2017-04-08T16:48:58.609Z,3264
2017-04-08T16:49:59.314Z,3204
2017-04-08T16:51:00.037Z,3120
2017-04-08T16:52:01.317Z,3088
2017-04-08T16:53:02.028Z,3088
2017-04-08T16:54:03.886Z,3052
2017-04-08T16:55:05.147Z,2988
2017-04-08T16:56:05.938Z,2924
2017-04-08T16:57:06.630Z,2840
2017-04-08T16:58:07.318Z,2752
2017-04-08T16:59:08.004Z,2716
2017-04-08T17:00:08.686Z,2688
2017-04-08T17:01:09.390Z,2568
2017-04-08T17:02:10.109Z,2520
2017-04-08T17:03:10.801Z,2456
2017-04-08T17:04:11.496Z,2380
2017-04-08T17:05:12.214Z,2340
2017-04-08T17:06:12.909Z,2248
2017-04-08T17:07:13.627Z,2180
2017-04-08T17:08:14.308Z,2088
2017-04-08T17:09:15.177Z,2056
2017-04-08T17:10:15.906Z,2008
2017-04-08T17:11:16.882Z,1952
2017-04-08T17:12:17.609Z,1900
2017-04-08T17:13:18.513Z,1828
2017-04-08T17:14:19.469Z,1816
2017-04-08T17:15:20.195Z,1756
2017-04-08T17:16:20.858Z,1724
2017-04-08T17:17:25.284Z,1700
2017-04-08T17:18:26.016Z,1656
2017-04-08T17:19:31.867Z,1604
